Latest Weather Observations for Mackay

IDQ60801

Issued at 4:05 pm EST Tuesday 2 September 2014 (issued every 30 minutes, with the page automatically refreshed every 10 minutes)

About weather observations | Map of weather stations | Latest weather observations for QLD | Other Formats
Station Details ID: 033119 Name: MACKAY M.O Lat: -21.12 Lon: 149.22 Height: 30.26 m
Data from the previous 72 hours. | See also: Recent months at Mackay
Date/Time
EST
Temp
°C
App
Temp
°C
Dew
Point
Rel
Hum
%
Delta-T
°C
Wind Press
QNH
hPa
Press
MSL
hPa
Rain
since 9 am
mm
Dir
 
Spd
km/h
Gust
km/h
Spd
kts
Gust
kts
02/04:00pm 24.0 22.7 15.7 59 5.0 N 17 26 9 14 1012.5 1012.3 0.2
02/03:30pm 24.3 22.6 15.7 58 5.2 N 19 30 10 16 1012.5 1012.3 0.2
02/03:00pm 24.8 23.2 15.9 57 5.4 N 19 28 10 15 1012.6 1012.4 0.0
02/02:30pm 25.4 23.2 14.5 51 6.5 N 19 30 10 16 1013.0 1012.8 0.0
02/02:00pm 25.5 22.8 13.0 46 7.3 N 19 28 10 15 1013.6 1013.4 0.0
02/01:30pm 25.6 23.0 13.3 46 7.2 N 19 30 10 16 1014.2 1014.0 0.0
02/01:00pm 26.6 24.6 14.0 46 7.5 N 17 28 9 15 1014.7 1014.5 0.0
02/12:30pm 26.9 25.0 14.2 45 7.6 N 17 24 9 13 1015.2 1015.0 0.0
02/12:00pm 26.2 24.6 15.1 50 6.7 N 17 26 9 14 1015.7 1015.5 0.0
02/11:30am 25.5 23.6 14.2 49 6.7 N 17 24 9 13 1016.3 1016.1 0.0
02/11:00am 26.0 23.8 14.8 50 6.7 N 20 26 11 14 1016.7 1016.5 0.0
02/10:30am 23.7 21.5 13.4 52 6.0 NNW 17 24 9 13 1017.3 1017.1 0.0
02/10:00am 23.4 22.0 14.4 57 5.3 NNW 15 24 8 13 1017.8 1017.6 0.0
02/09:30am 22.8 22.9 15.4 63 4.4 NW 9 17 5 9 1018.0 1017.8 0.0
02/09:00am 19.7 19.2 13.8 69 3.4 WSW 9 11 5 6 1018.4 1018.3 0.0
02/08:30am 18.2 17.8 13.0 71 2.9 SW 7 11 4 6 1018.4 1018.3 0.0
02/08:00am 16.4 15.3 12.0 75 2.4 SW 9 13 5 7 1018.1 1017.9 0.0
02/07:30am 14.8 12.5 10.6 76 2.2 WSW 13 17 7 9 1017.8 1017.6 0.0
02/07:00am 13.7 11.7 10.2 79 1.8 WSW 11 15 6 8 1017.8 1017.6 0.0
02/06:30am 12.9 10.5 10.2 84 1.4 WSW 13 15 7 8 1017.8 1017.6 0.0
02/06:00am 12.7 10.5 10.8 88 1.0 WSW 13 15 7 8 1017.6 1017.4 0.0
02/05:30am 12.7 10.6 11.0 89 0.9 WSW 13 15 7 8 1017.4 1017.2 0.0
02/05:00am 13.2 11.0 10.9 86 1.2 WSW 13 15 7 8 1017.4 1017.2 0.0
02/04:30am 13.7 11.7 11.6 87 1.1 WSW 13 15 7 8 1017.2 1017.0 0.0
02/04:00am 13.5 11.4 11.2 86 1.2 WSW 13 15 7 8 1017.3 1017.1 0.0
02/03:30am 13.9 11.7 10.9 82 1.6 WSW 13 17 7 9 1017.1 1016.9 0.0
02/03:00am 13.8 11.8 11.4 85 1.3 WSW 13 17 7 9 1017.7 1017.5 0.0
02/02:30am 13.7 11.9 12.2 91 0.8 SW 13 15 7 8 1018.0 1017.8 0.0
02/02:00am 14.3 13.2 13.0 92 0.7 WSW 11 15 6 8 1017.6 1017.4 0.0
02/01:30am 14.6 13.5 13.0 90 0.9 WSW 11 15 6 8 1017.9 1017.7 0.0
02/01:00am 14.9 13.8 13.1 89 1.0 WSW 11 15 6 8 1018.2 1018.0 0.0
02/12:30am 14.9 13.4 13.1 89 1.0 WSW 13 17 7 9 1018.5 1018.4 0.0
02/12:00am 15.5 14.5 13.5 88 1.1 WSW 11 15 6 8 1018.2 1018.0 0.0
 
Date/Time
EST
Temp
°C
App
Temp
°C
Dew
Point
Rel
Hum
%
Delta-T
°C
Wind Press
QNH
hPa
Press
MSL
hPa
Rain
since 9 am
mm
Dir
 
Spd
km/h
Gust
km/h
Spd
kts
Gust
kts
01/11:30pm 15.9 14.9 13.4 85 1.4 WSW 11 13 6 7 1018.2 1018.0 0.0
01/11:00pm 16.0 15.3 13.3 84 1.5 WSW 9 11 5 6 1018.2 1018.0 0.0
01/10:30pm 15.7 14.8 13.6 87 1.2 SW 11 13 6 7 1018.6 1018.5 0.0
01/10:00pm 16.0 15.2 13.9 87 1.2 SW 11 11 6 6 1018.3 1018.1 0.0
01/09:30pm 16.3 15.4 13.8 85 1.4 WSW 11 13 6 7 1018.3 1018.1 0.0
01/09:00pm 17.1 17.4 14.5 85 1.5 WNW 6 11 3 6 1018.3 1018.1 0.0
01/08:30pm 18.2 18.9 14.6 79 2.1 N 4 7 2 4 1018.3 1018.1 0.0
01/08:00pm 18.2 18.3 14.4 78 2.2 NE 7 11 4 6 1018.1 1017.9 0.0
01/07:30pm 18.5 18.6 14.5 77 2.3 NE 7 9 4 5 1017.8 1017.6 0.0
01/07:00pm 18.7 18.7 14.2 75 2.6 NE 7 11 4 6 1017.6 1017.4 0.0
01/06:30pm 18.8 18.8 14.3 75 2.6 NE 7 11 4 6 1017.3 1017.1 0.0
01/06:00pm 18.8 18.8 14.1 74 2.7 NE 7 11 4 6 1017.0 1016.8 0.0
01/05:30pm 19.9 19.9 14.2 69 3.3 ENE 7 13 4 7 1017.0 1016.8 0.0
01/05:00pm 21.1 20.7 14.0 64 4.1 NE 9 15 5 8 1016.4 1016.2 0.0
01/04:30pm 21.7 21.3 14.2 62 4.4 NE 9 17 5 9 1016.5 1016.3 0.0
01/04:00pm 21.9 20.7 14.0 61 4.6 ENE 13 19 7 10 1016.4 1016.2 0.0
01/03:30pm 21.2 20.6 14.7 66 3.8 E 11 15 6 8 1016.7 1016.5 0.0
01/03:00pm 21.6 21.1 14.8 65 4.0 E 11 17 6 9 1016.7 1016.5 0.0
01/02:30pm 21.3 20.7 14.7 66 3.9 E 11 17 6 9 1016.9 1016.7 0.0
01/02:00pm 21.2 20.5 14.3 64 4.0 E 11 15 6 8 1017.4 1017.2 0.0
01/01:30pm 21.9 21.8 15.0 65 4.1 ESE 9 13 5 7 1017.7 1017.5 0.0
01/01:00pm 21.5 21.3 14.7 65 4.0 E 9 15 5 8 1018.2 1018.0 0.0
01/12:30pm 21.9 21.6 14.4 62 4.4 SE 9 17 5 9 1018.5 1018.4 0.0
01/12:00pm 22.1 21.9 14.6 62 4.4 SE 9 15 5 8 1019.1 1019.0 0.0
01/11:30am 21.5 20.7 14.1 62 4.3 SE 11 15 6 8 1019.4 1019.3 0.0
01/11:00am 21.6 21.2 14.0 62 4.4 SE 9 13 5 7 1019.1 1019.0 0.0
01/10:30am 21.0 20.1 12.7 59 4.7 ESE 9 13 5 7 1019.6 1019.5 0.0
01/10:00am 21.4 21.1 13.2 59 4.7 ESE 7 13 4 7 1019.9 1019.8 0.0
01/09:30am 20.5 20.1 14.1 66 3.7 SSW 9 13 5 7 1020.1 1020.0 0.0
01/09:00am 19.3 18.5 13.9 71 3.1 SW 11 15 6 8 1020.1 1020.0 0.0
01/08:30am 17.4 16.5 13.7 79 2.1 SW 11 15 6 8 1019.7 1019.6 0.0
01/08:00am 15.8 14.1 12.5 81 1.8 SW 13 17 7 9 1019.5 1019.4 0.0
01/07:30am 14.2 12.3 11.8 85 1.3 SW 13 19 7 10 1019.1 1019.0 0.0
01/07:00am 12.8 10.3 10.9 88 1.0 WSW 15 20 8 11 1018.8 1018.7 0.0
01/06:30am 12.1 9.0 10.4 89 0.9 SW 17 20 9 11 1018.4 1018.3 0.0
01/06:00am 12.0 9.8 10.8 92 0.6 SW 13 17 7 9 1018.0 1017.9 0.0
01/05:30am 12.4 10.7 11.3 93 0.6 SW 11 17 6 9 1017.5 1017.4 0.0
01/05:00am 12.9 10.9 11.6 92 0.7 WSW 13 17 7 9 1017.5 1017.4 0.0
01/04:30am 13.0 11.1 11.9 93 0.6 SW 13 17 7 9 1017.4 1017.3 0.0
01/04:00am 13.3 11.5 12.2 93 0.6 WSW 13 17 7 9 1017.6 1017.5 0.0
01/03:30am 13.3 11.9 12.2 93 0.6 WSW 11 15 6 8 1017.4 1017.3 0.0
01/03:00am 13.4 11.8 12.7 95 0.4 SW 13 17 7 9 1017.7 1017.6 0.0
01/02:30am 13.8 12.3 13.1 96 0.4 WSW 13 19 7 10 1017.7 1017.6 0.0
01/02:00am 14.0 12.6 13.5 97 0.3 WSW 13 17 7 9 1017.9 1017.8 0.0
01/01:30am 13.8 12.4 13.3 97 0.3 WSW 13 17 7 9 1017.8 1017.7 0.0
01/01:00am 13.7 11.9 13.2 97 0.3 SW 15 17 8 9 1018.0 1017.9 0.0
01/12:30am 14.1 12.8 13.7 97 0.2 SW 13 15 7 8 1018.3 1018.2 0.0
01/12:00am 14.7 13.9 14.0 96 0.4 SW 11 13 6 7 1018.3 1018.2 0.0
 
Date/Time
EST
Temp
°C
App
Temp
°C
Dew
Point
Rel
Hum
%
Delta-T
°C
Wind Press
QNH
hPa
Press
MSL
hPa
Rain
since 9 am
mm
Dir
 
Spd
km/h
Gust
km/h
Spd
kts
Gust
kts
31/11:30pm 15.4 15.1 14.5 94 0.5 SW 9 11 5 6 1018.3 1018.2 0.0
31/11:00pm 15.7 15.5 14.7 94 0.6 SW 9 11 5 6 1018.4 1018.3 0.0
31/10:30pm 16.5 17.0 14.9 90 0.9 W 6 9 3 5 1018.5 1018.4 0.0
31/10:00pm 16.2 15.6 14.6 90 0.9 WSW 11 11 6 6 1018.7 1018.6 0.0
31/09:30pm 16.3 16.1 14.7 90 0.9 W 9 13 5 7 1018.6 1018.5 0.0
31/09:00pm 16.9 17.1 14.8 87 1.2 W 7 9 4 5 1018.4 1018.3 0.0
31/08:30pm 17.2 17.7 15.0 87 1.3 NW 6 9 3 5 1018.2 1018.1 0.0
31/08:00pm 17.2 17.5 15.0 87 1.3 N 7 7 4 4 1017.8 1017.7 0.0
31/07:30pm 17.2 17.7 15.0 87 1.3 N 6 9 3 5 1017.6 1017.5 0.0
31/07:00pm 17.6 18.0 14.7 83 1.7 NNE 6 9 3 5 1017.2 1017.1 0.0
31/06:30pm 18.0 18.3 14.9 82 1.8 NNE 7 11 4 6 1016.9 1016.8 0.0
31/06:00pm 18.6 18.6 15.2 80 2.0 NNE 9 15 5 8 1016.5 1016.4 0.0
31/05:30pm 19.6 19.7 15.5 77 2.4 NE 9 15 5 8 1016.2 1016.1 0.0
31/05:00pm 21.0 21.2 15.8 72 3.1 NE 9 17 5 9 1016.0 1015.9 0.0
31/04:30pm 21.2 21.6 16.2 73 3.0 NE 9 19 5 10 1015.8 1015.7 0.0
31/04:00pm 21.3 21.3 16.2 72 3.1 ENE 11 19 6 10 1015.8 1015.7 0.0
31/03:30pm 21.4 20.6 16.1 72 3.2 ENE 15 22 8 12 1015.7 1015.6 0.0
31/03:00pm 21.6 20.4 16.1 71 3.3 E 17 24 9 13 1015.7 1015.6 0.0
31/02:30pm 21.4 20.6 16.1 72 3.2 E 15 20 8 11 1016.2 1016.1 0.0
31/02:00pm 21.8 21.0 16.2 70 3.4 E 15 20 8 11 1016.6 1016.5 0.0
31/01:30pm 21.5 21.1 16.2 72 3.2 E 13 19 7 10 1017.0 1016.9 0.0
31/01:00pm 21.6 21.6 16.3 72 3.2 ESE 11 17 6 9 1017.4 1017.3 0.0
31/12:30pm 21.2 21.0 15.7 71 3.3 E 11 17 6 9 1017.9 1017.8 0.0
31/12:00pm 21.2 21.5 15.9 72 3.2 ESE 9 17 5 9 1018.1 1018.0 0.0
31/11:30am 21.0 20.8 15.8 72 3.1 ESE 11 19 6 10 1018.5 1018.4 0.0
31/11:00am 21.4 20.9 15.0 67 3.8 SE 11 15 6 8 1018.9 1018.8 0.0
31/10:30am 21.3 20.8 13.9 62 4.3 SE 9 15 5 8 1019.1 1019.0 0.0
31/10:00am 21.4 21.3 15.0 67 3.8 SSE 9 13 5 7 1019.4 1019.3 0.0
31/09:30am 20.9 20.6 13.2 61 4.4 S 7 11 4 6 1019.5 1019.4 0.0
31/09:00am 19.5 18.2 11.1 58 4.6 S 9 11 5 6 1019.5 1019.4 0.0
31/08:30am 18.2 17.1 10.6 61 4.1 WSW 7 11 4 6 1019.3 1019.2 0.0
31/08:00am 16.3 13.8 9.8 65 3.4 SW 13 17 7 9 1019.1 1019.0 0.0
31/07:30am 14.6 12.0 9.5 71 2.6 SW 13 17 7 9 1018.9 1018.8 0.0
31/07:00am 13.2 10.5 9.0 75 2.1 WSW 13 19 7 10 1018.5 1018.4 0.0
31/06:30am 12.5 9.4 8.9 79 1.8 WSW 15 20 8 11 1018.1 1018.0 0.0
31/06:00am 12.2 9.1 8.8 80 1.7 SW 15 20 8 11 1017.6 1017.5 0.0
31/05:30am 12.7 9.2 8.9 78 1.9 SW 17 24 9 13 1017.4 1017.3 0.0
31/05:00am 12.9 10.0 9.8 81 1.6 SW 15 20 8 11 1017.0 1016.9 0.0
31/04:30am 13.1 10.1 9.4 78 1.9 WSW 15 19 8 10 1016.9 1016.8 0.0
31/04:00am 13.1 10.2 9.6 79 1.8 WSW 15 19 8 10 1016.9 1016.8 0.0
31/03:30am 13.6 11.0 9.3 75 2.2 WSW 13 19 7 10 1016.8 1016.7 0.0
31/03:00am 13.1 10.3 10.0 81 1.6 WSW 15 19 8 10 1017.1 1017.0 0.0
31/02:30am 13.1 10.4 10.2 82 1.5 SW 15 19 8 10 1017.3 1017.2 0.0
31/02:00am 13.3 10.6 10.4 82 1.5 SW 15 19 8 10 1017.6 1017.5 0.0
31/01:30am 13.8 11.1 10.3 79 1.8 SW 15 19 8 10 1017.8 1017.7 0.0
31/01:00am 13.9 11.4 10.9 82 1.6 SW 15 17 8 9 1018.1 1018.0 0.0
31/12:30am 14.5 12.3 10.9 79 1.9 SW 13 17 7 9 1018.2 1018.1 0.0
31/12:00am 14.7 12.6 11.1 79 1.9 WSW 13 15 7 8 1018.5 1018.4 0.0
 
Date/Time
EST
Temp
°C
App
Temp
°C
Dew
Point
Rel
Hum
%
Delta-T
°C
Wind Press
QNH
hPa
Press
MSL
hPa
Rain
since 9 am
mm
Dir
 
Spd
km/h
Gust
km/h
Spd
kts
Gust
kts
30/11:30pm 14.9 13.2 11.1 78 2.0 WSW 11 13 6 7 1018.7 1018.6 0.0
30/11:00pm 15.0 12.9 11.3 78 2.0 SW 13 15 7 8 1018.9 1018.8 0.0
30/10:30pm 15.4 13.7 11.3 76 2.2 SW 11 13 6 7 1019.0 1018.9 0.0
30/10:00pm 16.0 14.4 11.6 75 2.4 SW 11 13 6 7 1019.0 1018.9 0.0
30/09:30pm 15.9 14.4 12.0 77 2.1 SW 11 13 6 7 1018.9 1018.8 0.0
30/09:00pm 16.6 15.9 13.2 80 1.9 WSW 9 13 5 7 1018.9 1018.8 0.0
30/08:30pm 17.6 18.1 14.1 80 2.0 N 4 9 2 5 1018.8 1018.7 0.0
30/08:00pm 17.6 17.1 13.9 79 2.1 NNE 9 13 5 7 1018.6 1018.5 0.0
30/07:30pm 17.8 17.1 13.2 74 2.6 NNE 9 13 5 7 1018.2 1018.1 0.0
30/07:00pm 18.3 17.7 13.5 73 2.7 NNE 9 15 5 8 1017.9 1017.8 0.0
30/06:30pm 18.3 18.1 13.5 73 2.7 NNE 7 13 4 7 1017.6 1017.5 0.0
30/06:00pm 19.1 17.9 12.9 67 3.5 ENE 11 19 6 10 1017.3 1017.2 0.0
30/05:30pm 20.0 17.7 11.9 59 4.5 ENE 15 22 8 12 1017.0 1016.9 0.0
30/05:00pm 20.7 18.2 12.3 58 4.7 ENE 17 24 9 13 1016.7 1016.6 0.0
30/04:30pm 21.2 19.2 12.7 58 4.8 ENE 15 24 8 13 1017.0 1016.9 0.0

Other Formats:

Comma delimited format used in spreadsheet applications
http://www.bom.gov.au/fwo/IDQ60801/IDQ60801.94367.axf

JavaScript Object Notation format (JSON) in row-major order
http://www.bom.gov.au/fwo/IDQ60801/IDQ60801.94367.json